Time;durP1;ratioP1;P1;durP2;ratioP2;P2;SDS_P1;SDS_P2;PMS_P1;PMS_P2;Temp;Humidity;BMP_temperature;BMP_pressure;BME280_temperature;BME280_humidity;BME280_pressure;Samples;Min_cycle;Max_cycle;Signal;HPM_P1;HPM_P2
2022/01/16 00:00:59;;;;;;;;;;;5.60;99.90;;;;;;4882821;29;19928;-87
2022/01/16 00:06:13;;;;;;;;;;;5.60;99.90;;;;;;4882612;29;20023;-85
2022/01/16 00:08:39;;;;;;;;;;;5.50;99.90;;;;;;4894008;29;19932;-87
2022/01/16 00:11:06;;;;;;;;;;;5.50;99.90;;;;;;4901162;29;19979;-86
2022/01/16 00:13:33;;;;;;;;;;;5.50;99.90;;;;;;4914834;29;20374;-87
2022/01/16 00:15:59;;;;;;;;;;;5.50;99.90;;;;;;4920382;29;20031;-87
2022/01/16 00:18:29;;;;;;;;;;;5.50;99.90;;;;;;4894926;29;19935;-86
2022/01/16 00:20:56;;;;;;;;;;;5.50;99.90;;;;;;4901248;29;20037;-86
2022/01/16 00:23:26;;;;;;;;;;;5.50;99.90;;;;;;4900722;29;19927;-86
2022/01/16 00:25:54;;;;;;;;;;;5.60;99.90;;;;;;4901513;29;20026;-87
2022/01/16 00:28:21;;;;;;;;;;;5.50;99.90;;;;;;4900100;29;19931;-87
2022/01/16 00:30:48;;;;;;;;;;;5.50;99.90;;;;;;4900385;29;20007;-86
2022/01/16 00:33:15;;;;;;;;;;;5.50;99.90;;;;;;4900290;29;20302;-86
2022/01/16 00:35:42;;;;;;;;;;;5.60;99.90;;;;;;4900623;29;19962;-87
2022/01/16 00:38:09;;;;;;;;;;;5.50;99.90;;;;;;4891505;29;19988;-86
2022/01/16 00:40:37;;;;;;;;;;;5.60;99.90;;;;;;4900744;29;19927;-87
2022/01/16 00:43:05;;;;;;;;;;;5.50;99.90;;;;;;4899953;29;20375;-87
2022/01/16 00:45:34;;;;;;;;;;;5.50;99.90;;;;;;4900794;29;19928;-87
2022/01/16 00:48:01;;;;;;;;;;;5.50;99.90;;;;;;4900652;29;19988;-87
2022/01/16 00:50:28;;;;;;;;;;;5.50;99.90;;;;;;4901418;29;19931;-86
2022/01/16 00:52:54;;;;;;;;;;;5.50;99.90;;;;;;4884701;29;19974;-86
2022/01/16 00:55:21;;;;;;;;;;;5.60;99.90;;;;;;4882039;29;19976;-87
2022/01/16 00:57:50;;;;;;;;;;;5.60;99.90;;;;;;4894164;29;19976;-85
2022/01/16 01:00:16;;;;;;;;;;;5.60;99.90;;;;;;4900624;29;20335;-87
2022/01/16 01:02:43;;;;;;;;;;;5.60;99.90;;;;;;4899730;29;19956;-88
2022/01/16 01:05:11;;;;;;;;;;;5.60;99.90;;;;;;4900217;29;20019;-86
2022/01/16 01:07:38;;;;;;;;;;;5.50;99.90;;;;;;4899752;29;19928;-87
2022/01/16 01:10:05;;;;;;;;;;;5.60;99.90;;;;;;4898950;29;19927;-87
2022/01/16 01:12:44;;;;;;;;;;;5.80;99.90;;;;;;4905117;29;20378;-87
2022/01/16 01:15:12;;;;;;;;;;;5.90;99.90;;;;;;4919039;29;19934;-87
2022/01/16 01:17:45;;;;;;;;;;;5.70;99.90;;;;;;4908783;29;19934;-86
2022/01/16 01:20:14;;;;;;;;;;;5.70;99.90;;;;;;4900155;29;19974;-87
2022/01/16 01:22:41;;;;;;;;;;;5.60;99.90;;;;;;4899494;29;19987;-87
2022/01/16 01:25:09;;;;;;;;;;;5.60;99.90;;;;;;4900098;29;19976;-87
2022/01/16 01:27:35;;;;;;;;;;;5.60;99.90;;;;;;4899932;29;19928;-87
2022/01/16 01:30:06;;;;;;;;;;;5.60;99.90;;;;;;4882697;29;19985;-87
2022/01/16 01:32:36;;;;;;;;;;;5.60;99.90;;;;;;4881572;29;19974;-87
2022/01/16 01:35:03;;;;;;;;;;;5.50;99.90;;;;;;4881177;29;19961;-87
2022/01/16 01:37:30;;;;;;;;;;;5.50;99.90;;;;;;4892447;29;19980;-87
2022/01/16 01:39:57;;;;;;;;;;;5.50;99.90;;;;;;4899937;29;20371;-87
2022/01/16 01:42:30;;;;;;;;;;;5.70;99.90;;;;;;4899949;29;19931;-86
2022/01/16 01:53:13;;;;;;;;;;;5.40;99.90;;;;;;4880816;29;19939;-86
2022/01/16 01:55:41;;;;;;;;;;;5.40;99.90;;;;;;4892483;29;19975;-86
2022/01/16 01:58:09;;;;;;;;;;;5.30;99.90;;;;;;4898777;29;19935;-86
2022/01/16 02:00:36;;;;;;;;;;;5.20;99.90;;;;;;4899753;29;19928;-86
2022/01/16 02:05:45;;;;;;;;;;;5.10;99.90;;;;;;4899243;29;19928;-87
2022/01/16 02:08:13;;;;;;;;;;;5.10;99.90;;;;;;4897874;29;19971;-87
2022/01/16 02:10:40;;;;;;;;;;;5.10;99.90;;;;;;4899309;29;19938;-86
2022/01/16 02:13:10;;;;;;;;;;;5.30;99.90;;;;;;4909685;29;19927;-86
2022/01/16 02:27:57;;;;;;;;;;;5.10;99.90;;;;;;4918051;29;19927;-86
2022/01/16 02:30:16;;;;;;;;;;;5.10;99.90;;;;;;4898741;29;19991;-88
2022/01/16 02:32:48;;;;;;;;;;;5.10;99.90;;;;;;4899986;29;19927;-87
2022/01/16 02:35:15;;;;;;;;;;;5.20;99.90;;;;;;4903360;29;19927;-87
2022/01/16 02:37:42;;;;;;;;;;;5.20;99.90;;;;;;4903011;29;20409;-87
2022/01/16 02:40:18;;;;;;;;;;;5.20;99.90;;;;;;4902501;29;19951;-87
2022/01/16 02:42:49;;;;;;;;;;;5.20;99.90;;;;;;4903041;29;20027;-86
2022/01/16 02:45:27;;;;;;;;;;;5.20;99.90;;;;;;4902664;29;19931;-87
2022/01/16 02:47:54;;;;;;;;;;;5.20;99.90;;;;;;4901948;29;19928;-87
2022/01/16 02:50:21;;;;;;;;;;;5.60;99.90;;;;;;4902242;29;20014;-88
2022/01/16 02:52:48;;;;;;;;;;;5.20;99.90;;;;;;4902292;29;19927;-87
2022/01/16 02:55:16;;;;;;;;;;;5.20;99.90;;;;;;4902530;29;19976;-86
2022/01/16 02:57:43;;;;;;;;;;;5.20;99.90;;;;;;4901871;29;19927;-86
2022/01/16 03:00:13;;;;;;;;;;;5.30;99.90;;;;;;4901738;29;20005;-87
2022/01/16 03:02:40;;;;;;;;;;;5.40;99.90;;;;;;4902002;29;19963;-87
2022/01/16 03:05:07;;;;;;;;;;;5.40;99.90;;;;;;4902511;29;19928;-87
2022/01/16 03:07:34;;;;;;;;;;;5.30;99.90;;;;;;4901691;29;19974;-86
2022/01/16 03:10:13;;;;;;;;;;;5.40;99.90;;;;;;4901330;29;19931;-86
2022/01/16 03:12:41;;;;;;;;;;;5.40;99.90;;;;;;4908444;29;20397;-87
2022/01/16 03:15:08;;;;;;;;;;;5.40;99.90;;;;;;4920887;29;19934;-86
2022/01/16 03:17:40;;;;;;;;;;;5.40;99.90;;;;;;4909680;29;19927;-87
2022/01/16 03:22:52;;;;;;;;;;;5.40;99.90;;;;;;4895952;29;19968;-87
2022/01/16 03:25:19;;;;;;;;;;;5.40;99.90;;;;;;4901734;29;19927;-86
2022/01/16 03:27:47;;;;;;;;;;;5.40;99.90;;;;;;4901670;29;19960;-86
2022/01/16 03:30:14;;;;;;;;;;;5.50;99.90;;;;;;4900753;29;19983;-86
2022/01/16 03:32:41;;;;;;;;;;;5.50;99.90;;;;;;4901713;29;19997;-87
2022/01/16 03:35:08;;;;;;;;;;;5.50;99.90;;;;;;4888000;29;19928;-87
2022/01/16 03:37:35;;;;;;;;;;;5.50;99.90;;;;;;4882306;29;19928;-86
2022/01/16 03:40:04;;;;;;;;;;;5.50;99.90;;;;;;4896009;29;19960;-86
2022/01/16 03:42:33;;;;;;;;;;;5.50;99.90;;;;;;4900586;29;19931;-86
2022/01/16 03:45:01;;;;;;;;;;;5.60;99.90;;;;;;4900019;29;19931;-86
2022/01/16 03:47:28;;;;;;;;;;;5.30;99.90;;;;;;4901023;29;20340;-86
2022/01/16 03:49:55;;;;;;;;;;;5.60;99.90;;;;;;4888695;29;20367;-86
2022/01/16 03:52:22;;;;;;;;;;;5.60;99.90;;;;;;4896460;29;20366;-86
2022/01/16 03:54:49;;;;;;;;;;;5.20;99.90;;;;;;4900168;29;20000;-86
2022/01/16 03:57:16;;;;;;;;;;;5.70;99.90;;;;;;4901057;29;19927;-87
2022/01/16 03:59:42;;;;;;;;;;;5.70;99.90;;;;;;4890758;29;19974;-86
2022/01/16 04:02:11;;;;;;;;;;;5.80;99.90;;;;;;4900187;29;19927;-86
2022/01/16 04:04:37;;;;;;;;;;;5.70;99.90;;;;;;4900960;29;20347;-86
2022/01/16 04:07:05;;;;;;;;;;;5.60;99.90;;;;;;4900155;29;19927;-86
2022/01/16 04:09:32;;;;;;;;;;;5.60;99.90;;;;;;4891667;29;19928;-87
2022/01/16 04:11:59;;;;;;;;;;;5.80;99.90;;;;;;4900218;29;19927;-86
2022/01/16 04:15:31;;;;;;;;;;;5.70;99.90;;;;;;4900574;29;19927;-86
2022/01/16 04:17:17;;;;;;;;;;;5.60;99.90;;;;;;4900182;29;19928;-86
2022/01/16 04:19:44;;;;;;;;;;;5.60;99.90;;;;;;4899714;29;20419;-86
2022/01/16 04:22:10;;;;;;;;;;;5.50;99.90;;;;;;4900455;29;19928;-86
2022/01/16 04:24:37;;;;;;;;;;;5.40;99.90;;;;;;4900003;29;19976;-86
2022/01/16 04:27:04;;;;;;;;;;;5.40;99.90;;;;;;4900333;29;19927;-86
2022/01/16 04:29:31;;;;;;;;;;;4.90;99.90;;;;;;4891825;29;19981;-86
2022/01/16 04:31:58;;;;;;;;;;;5.30;99.90;;;;;;4895086;29;19936;-86
2022/01/16 04:34:26;;;;;;;;;;;5.20;99.90;;;;;;4900561;29;20220;-87
2022/01/16 04:36:53;;;;;;;;;;;5.20;99.90;;;;;;4900229;29;19983;-87
2022/01/16 04:39:21;;;;;;;;;;;5.10;99.90;;;;;;4900159;29;19964;-86
2022/01/16 04:44:32;;;;;;;;;;;5.00;99.90;;;;;;4900207;29;19961;-87
2022/01/16 04:46:59;;;;;;;;;;;5.00;99.90;;;;;;4899161;29;19927;-86
2022/01/16 04:49:28;;;;;;;;;;;5.00;99.90;;;;;;4900427;29;19928;-86
2022/01/16 04:51:55;;;;;;;;;;;5.00;99.90;;;;;;4888783;29;19976;-86
2022/01/16 04:54:22;;;;;;;;;;;5.10;99.90;;;;;;4892343;29;19932;-86
2022/01/16 04:56:48;;;;;;;;;;;5.10;99.90;;;;;;4899510;29;20328;-86
2022/01/16 04:59:17;;;;;;;;;;;5.10;99.90;;;;;;4893678;29;20192;-87
2022/01/16 05:01:44;;;;;;;;;;;5.00;99.90;;;;;;4888491;29;19927;-87
2022/01/16 05:04:11;;;;;;;;;;;5.00;99.90;;;;;;4899709;29;19952;-86
2022/01/16 05:06:39;;;;;;;;;;;5.00;99.90;;;;;;4899464;29;19927;-86
2022/01/16 05:09:06;;;;;;;;;;;5.00;99.90;;;;;;4895402;29;19978;-86
2022/01/16 05:11:33;;;;;;;;;;;5.00;99.90;;;;;;4880981;29;19927;-86
2022/01/16 05:16:44;;;;;;;;;;;4.90;99.90;;;;;;4898872;29;20302;-86
2022/01/16 05:19:12;;;;;;;;;;;4.90;99.90;;;;;;4894620;29;19928;-86
2022/01/16 05:21:42;;;;;;;;;;;4.90;99.90;;;;;;4880588;29;19971;-87
2022/01/16 05:24:10;;;;;;;;;;;4.90;99.90;;;;;;4886842;29;20059;-86
2022/01/16 05:26:38;;;;;;;;;;;4.90;99.90;;;;;;4899230;29;19927;-87
2022/01/16 05:29:05;;;;;;;;;;;5.00;99.90;;;;;;4896473;29;19934;-86
2022/01/16 05:31:31;;;;;;;;;;;4.20;99.90;;;;;;4881177;29;20005;-87
2022/01/16 05:33:58;;;;;;;;;;;5.00;99.90;;;;;;4881165;29;19932;-86
2022/01/16 05:36:27;;;;;;;;;;;5.00;99.90;;;;;;4889003;29;20450;-86
2022/01/16 05:38:56;;;;;;;;;;;5.00;99.90;;;;;;4897367;29;20382;-87
2022/01/16 05:41:22;;;;;;;;;;;5.00;99.90;;;;;;4880964;29;19984;-86
2022/01/16 05:43:50;;;;;;;;;;;5.00;99.90;;;;;;4881394;29;19927;-87
2022/01/16 05:46:16;;;;;;;;;;;5.10;99.90;;;;;;4890560;29;19928;-87
2022/01/16 05:48:43;;;;;;;;;;;5.10;99.90;;;;;;4880704;29;20455;-87
2022/01/16 05:51:10;;;;;;;;;;;5.10;99.90;;;;;;4899007;29;19984;-86
2022/01/16 05:53:37;;;;;;;;;;;5.10;99.90;;;;;;4899971;29;19991;-86
2022/01/16 05:56:06;;;;;;;;;;;5.10;99.90;;;;;;4892690;29;20365;-86
2022/01/16 05:58:33;;;;;;;;;;;5.10;99.90;;;;;;4880792;29;20347;-87
2022/01/16 06:01:00;;;;;;;;;;;3.80;99.90;;;;;;4884587;29;20347;-87
2022/01/16 06:03:26;;;;;;;;;;;5.10;99.90;;;;;;4899185;29;19992;-86
2022/01/16 06:05:53;;;;;;;;;;;5.10;99.90;;;;;;4899289;29;19983;-86
2022/01/16 06:08:20;;;;;;;;;;;5.10;99.90;;;;;;4898551;29;20328;-87
2022/01/16 06:10:46;;;;;;;;;;;5.10;99.90;;;;;;4866856;29;20419;-87
2022/01/16 06:13:15;;;;;;;;;;;5.10;99.90;;;;;;4880201;29;19928;-87
2022/01/16 06:15:41;;;;;;;;;;;5.10;99.90;;;;;;4882919;29;20295;-86
2022/01/16 06:18:08;;;;;;;;;;;5.10;99.90;;;;;;4879907;29;19984;-87
2022/01/16 06:20:35;;;;;;;;;;;5.10;99.90;;;;;;4866539;29;19929;-86
2022/01/16 06:23:02;;;;;;;;;;;5.10;99.90;;;;;;4878507;29;19938;-86
2022/01/16 06:25:29;;;;;;;;;;;5.40;99.90;;;;;;4880513;29;19975;-86
2022/01/16 06:27:55;;;;;;;;;;;5.10;99.90;;;;;;4880214;29;19937;-87
2022/01/16 06:30:23;;;;;;;;;;;5.10;99.90;;;;;;4878264;29;19939;-86
2022/01/16 06:32:50;;;;;;;;;;;5.20;99.90;;;;;;4879842;29;19972;-87
2022/01/16 06:35:17;;;;;;;;;;;5.20;99.90;;;;;;4880226;29;19931;-86
2022/01/16 06:37:44;;;;;;;;;;;5.20;99.90;;;;;;4880827;29;19928;-87
2022/01/16 06:40:12;;;;;;;;;;;5.20;99.90;;;;;;4880067;29;20353;-87
2022/01/16 06:42:38;;;;;;;;;;;5.10;99.90;;;;;;4880216;29;19928;-87
2022/01/16 06:45:06;;;;;;;;;;;5.10;99.90;;;;;;4863457;29;20446;-87
2022/01/16 06:47:34;;;;;;;;;;;5.10;99.90;;;;;;4880106;29;19928;-86
2022/01/16 06:50:01;;;;;;;;;;;5.00;99.90;;;;;;4879924;29;19944;-86
2022/01/16 06:52:28;;;;;;;;;;;5.00;99.90;;;;;;4879924;29;20447;-87
2022/01/16 06:54:54;;;;;;;;;;;4.80;99.90;;;;;;4880247;29;19931;-87
2022/01/16 06:57:21;;;;;;;;;;;5.00;99.90;;;;;;4880670;29;19928;-87
2022/01/16 06:59:48;;;;;;;;;;;5.00;99.90;;;;;;4873074;29;19993;-86
2022/01/16 07:02:16;;;;;;;;;;;4.20;99.90;;;;;;4890718;29;19927;-87
2022/01/16 07:04:45;;;;;;;;;;;5.00;99.90;;;;;;4881895;29;19927;-86
2022/01/16 07:07:12;;;;;;;;;;;5.00;99.90;;;;;;4881884;29;20304;-86
2022/01/16 07:09:39;;;;;;;;;;;4.90;99.90;;;;;;4898124;29;19931;-86
2022/01/16 07:12:06;;;;;;;;;;;4.90;99.90;;;;;;4899107;29;19991;-87
2022/01/16 07:14:33;;;;;;;;;;;5.00;99.90;;;;;;4897704;29;19927;-86
2022/01/16 07:17:00;;;;;;;;;;;4.80;99.90;;;;;;4898523;29;19952;-87
2022/01/16 07:19:27;;;;;;;;;;;4.90;99.90;;;;;;4899683;29;19928;-87
2022/01/16 07:21:55;;;;;;;;;;;4.90;99.90;;;;;;4902040;29;19928;-86
2022/01/16 07:24:22;;;;;;;;;;;4.30;99.90;;;;;;4884486;29;19932;-87
2022/01/16 07:26:49;;;;;;;;;;;4.90;99.90;;;;;;4901691;29;20387;-87
2022/01/16 07:29:15;;;;;;;;;;;4.90;99.90;;;;;;4901206;29;19994;-85
2022/01/16 07:31:42;;;;;;;;;;;4.90;99.90;;;;;;4901856;29;19935;-86
2022/01/16 07:34:09;;;;;;;;;;;4.90;99.90;;;;;;4901321;29;19927;-86
2022/01/16 07:36:36;;;;;;;;;;;4.90;99.90;;;;;;4883103;29;19927;-86
2022/01/16 07:39:04;;;;;;;;;;;4.80;99.90;;;;;;4883508;29;19935;-86
2022/01/16 07:41:31;;;;;;;;;;;4.80;99.90;;;;;;4882790;29;19964;-86
2022/01/16 07:43:57;;;;;;;;;;;4.90;99.90;;;;;;4892542;29;19928;-86
2022/01/16 07:46:25;;;;;;;;;;;5.70;99.90;;;;;;4900732;29;20374;-86
2022/01/16 07:48:51;;;;;;;;;;;4.90;99.90;;;;;;4900023;29;20347;-86
2022/01/16 07:51:18;;;;;;;;;;;4.90;99.90;;;;;;4900589;29;19970;-86
2022/01/16 07:53:45;;;;;;;;;;;4.90;99.90;;;;;;4895356;29;19928;-86
2022/01/16 07:56:13;;;;;;;;;;;4.90;99.90;;;;;;4900074;29;19928;-86
2022/01/16 07:58:42;;;;;;;;;;;5.00;99.90;;;;;;4901139;29;19996;-86
2022/01/16 08:01:08;;;;;;;;;;;5.00;99.90;;;;;;4887325;29;19935;-86
2022/01/16 08:03:35;;;;;;;;;;;5.10;99.90;;;;;;4895469;29;20384;-86
2022/01/16 08:06:02;;;;;;;;;;;5.10;99.90;;;;;;4898909;29;19975;-86
2022/01/16 08:08:29;;;;;;;;;;;5.10;99.90;;;;;;4901189;29;19964;-86
2022/01/16 08:10:55;;;;;;;;;;;5.20;99.90;;;;;;4899942;29;19967;-88
2022/01/16 08:13:24;;;;;;;;;;;5.20;99.90;;;;;;4901533;29;19987;-87
2022/01/16 08:15:51;;;;;;;;;;;5.50;99.90;;;;;;4900148;29;19978;-87
2022/01/16 08:18:18;;;;;;;;;;;5.30;99.90;;;;;;4901499;29;19958;-87
2022/01/16 08:20:44;;;;;;;;;;;5.30;99.90;;;;;;4892105;29;19927;-87
2022/01/16 08:23:11;;;;;;;;;;;5.40;99.90;;;;;;4888266;29;19999;-87
2022/01/16 08:25:38;;;;;;;;;;;5.50;99.90;;;;;;4900530;29;19983;-87
2022/01/16 08:28:05;;;;;;;;;;;5.40;99.90;;;;;;4900862;29;20324;-87
2022/01/16 08:30:34;;;;;;;;;;;5.00;99.90;;;;;;4887567;29;20325;-86
2022/01/16 08:33:00;;;;;;;;;;;5.40;99.90;;;;;;4898518;29;20000;-87
2022/01/16 08:35:27;;;;;;;;;;;5.30;99.90;;;;;;4900713;29;19939;-86
2022/01/16 08:37:54;;;;;;;;;;;4.30;99.90;;;;;;4895382;29;19932;-87
2022/01/16 08:40:21;;;;;;;;;;;5.40;99.90;;;;;;4882592;29;19953;-87
2022/01/16 08:42:49;;;;;;;;;;;5.20;99.90;;;;;;4900727;29;19928;-86
2022/01/16 08:45:16;;;;;;;;;;;5.20;99.90;;;;;;4900674;29;19928;-87
2022/01/16 08:47:45;;;;;;;;;;;5.20;99.90;;;;;;4898153;29;19967;-86
2022/01/16 08:50:13;;;;;;;;;;;5.10;99.90;;;;;;4890810;29;19927;-87
2022/01/16 08:52:39;;;;;;;;;;;5.10;99.90;;;;;;4900529;29;20291;-86
2022/01/16 08:55:07;;;;;;;;;;;5.10;99.90;;;;;;4900284;29;19931;-87
2022/01/16 08:57:33;;;;;;;;;;;5.10;99.90;;;;;;4898615;29;19927;-87
2022/01/16 09:00:00;;;;;;;;;;;5.20;99.90;;;;;;4881546;29;19982;-87
2022/01/16 09:02:27;;;;;;;;;;;5.30;99.90;;;;;;4894289;29;19988;-87
2022/01/16 09:04:55;;;;;;;;;;;5.30;99.90;;;;;;4899946;29;20031;-87
2022/01/16 09:07:22;;;;;;;;;;;5.40;99.90;;;;;;4898882;29;19974;-86
2022/01/16 09:09:48;;;;;;;;;;;5.60;99.90;;;;;;4899914;29;20451;-87
2022/01/16 09:12:15;;;;;;;;;;;5.70;99.90;;;;;;4899514;29;20007;-86
2022/01/16 09:14:42;;;;;;;;;;;5.80;99.90;;;;;;4886270;29;19932;-87
2022/01/16 09:17:09;;;;;;;;;;;6.00;99.90;;;;;;4900440;29;19983;-86
2022/01/16 09:19:36;;;;;;;;;;;6.20;99.90;;;;;;4899501;29;19928;-86
2022/01/16 09:22:04;;;;;;;;;;;6.40;99.90;;;;;;4900037;29;19927;-87
2022/01/16 09:24:31;;;;;;;;;;;6.50;99.90;;;;;;4884408;29;19927;-87
2022/01/16 09:26:58;;;;;;;;;;;6.50;99.90;;;;;;4899935;29;20018;-87
2022/01/16 09:29:25;;;;;;;;;;;6.30;99.90;;;;;;4884811;29;19928;-86
2022/01/16 09:31:53;;;;;;;;;;;6.30;99.90;;;;;;4899904;29;19928;-86
2022/01/16 09:34:20;;;;;;;;;;;6.20;99.90;;;;;;4885395;29;20402;-87
2022/01/16 09:36:47;;;;;;;;;;;6.20;99.90;;;;;;4886289;29;19927;-88
2022/01/16 09:39:15;;;;;;;;;;;6.10;99.90;;;;;;4886770;29;19980;-87
2022/01/16 09:41:42;;;;;;;;;;;6.20;99.90;;;;;;4880878;29;19967;-87
2022/01/16 09:44:09;;;;;;;;;;;6.10;99.90;;;;;;4898774;29;20293;-88
2022/01/16 09:46:36;;;;;;;;;;;6.10;99.90;;;;;;4899543;29;19969;-86
2022/01/16 09:49:03;;;;;;;;;;;6.20;99.90;;;;;;4896211;29;20019;-86
2022/01/16 09:51:30;;;;;;;;;;;6.20;99.90;;;;;;4899987;29;19992;-88
2022/01/16 09:53:57;;;;;;;;;;;6.20;99.90;;;;;;4888493;29;19928;-87
2022/01/16 09:56:25;;;;;;;;;;;6.10;99.90;;;;;;4881319;29;20340;-86
2022/01/16 09:58:52;;;;;;;;;;;4.30;99.90;;;;;;4880761;29;20299;-87
2022/01/16 10:01:19;;;;;;;;;;;6.00;99.90;;;;;;4892749;29;19928;-86
2022/01/16 10:03:47;;;;;;;;;;;6.10;99.90;;;;;;4899992;29;19934;-86
2022/01/16 10:06:15;;;;;;;;;;;6.20;99.90;;;;;;4899250;29;19983;-87
2022/01/16 10:08:43;;;;;;;;;;;6.40;99.90;;;;;;4897914;29;19993;-87
2022/01/16 10:11:20;;;;;;;;;;;6.20;99.90;;;;;;4899007;29;19992;-87
2022/01/16 10:13:57;;;;;;;;;;;6.10;99.90;;;;;;4890564;29;19928;-86
2022/01/16 10:16:28;;;;;;;;;;;6.50;99.90;;;;;;4881628;29;19959;-87
2022/01/16 10:18:55;;;;;;;;;;;6.50;99.90;;;;;;4883758;29;19932;-86
2022/01/16 10:21:31;;;;;;;;;;;6.60;99.90;;;;;;4889395;29;19966;-86
2022/01/16 10:24:00;;;;;;;;;;;6.60;99.90;;;;;;4899301;29;19974;-87
2022/01/16 10:26:28;;;;;;;;;;;6.70;99.90;;;;;;4899118;29;19979;-87
2022/01/16 10:28:56;;;;;;;;;;;6.60;99.90;;;;;;4899318;29;19928;-87
2022/01/16 10:31:25;;;;;;;;;;;6.60;99.90;;;;;;4898257;29;20402;-86
2022/01/16 10:33:54;;;;;;;;;;;6.50;99.90;;;;;;4897310;29;19928;-86
2022/01/16 10:36:33;;;;;;;;;;;6.70;99.90;;;;;;4899571;29;19964;-86
2022/01/16 10:39:07;;;;;;;;;;;6.80;99.90;;;;;;4899373;29;19979;-87
2022/01/16 10:41:34;;;;;;;;;;;6.80;99.90;;;;;;4894371;29;19928;-87
2022/01/16 10:44:04;;;;;;;;;;;7.00;99.90;;;;;;4887434;29;19932;-86
2022/01/16 10:46:31;;;;;;;;;;;7.10;99.90;;;;;;4898728;29;19935;-86
2022/01/16 10:49:16;;;;;;;;;;;7.20;99.90;;;;;;4886011;29;19927;-86
2022/01/16 10:51:45;;;;;;;;;;;7.30;99.90;;;;;;4899091;29;19927;-87
2022/01/16 10:54:27;;;;;;;;;;;7.30;99.90;;;;;;4899917;29;19927;-87
2022/01/16 10:56:54;;;;;;;;;;;7.30;99.90;;;;;;4888740;29;19928;-87
2022/01/16 10:59:25;;;;;;;;;;;7.30;99.90;;;;;;4902243;29;19935;-87
2022/01/16 11:02:08;;;;;;;;;;;7.30;99.90;;;;;;4903415;29;20014;-88
2022/01/16 11:04:34;;;;;;;;;;;7.40;99.90;;;;;;4900404;29;20295;-86
2022/01/16 11:07:02;;;;;;;;;;;7.30;99.90;;;;;;4900907;29;20383;-85
2022/01/16 11:09:30;;;;;;;;;;;7.30;99.90;;;;;;4902891;29;20013;-86
2022/01/16 11:11:59;;;;;;;;;;;7.30;99.90;;;;;;4895061;29;19977;-86
2022/01/16 11:14:27;;;;;;;;;;;7.40;99.90;;;;;;4900413;29;20008;-86
2022/01/16 11:16:55;;;;;;;;;;;7.50;99.90;;;;;;4898107;29;20034;-85
2022/01/16 11:19:24;;;;;;;;;;;7.60;99.90;;;;;;4888171;29;19927;-84
2022/01/16 11:21:54;;;;;;;;;;;7.60;99.90;;;;;;4901468;29;20014;-85
2022/01/16 11:24:34;;;;;;;;;;;5.80;99.90;;;;;;4902081;29;19987;-85
2022/01/16 11:27:01;;;;;;;;;;;7.60;99.90;;;;;;4897525;29;20439;-86
2022/01/16 11:29:30;;;;;;;;;;;6.90;99.90;;;;;;4898109;29;19979;-86
2022/01/16 11:31:58;;;;;;;;;;;7.50;99.90;;;;;;4901241;29;19973;-86
2022/01/16 11:34:27;;;;;;;;;;;7.40;99.90;;;;;;4901584;29;20244;-87
2022/01/16 11:36:57;;;;;;;;;;;7.40;99.90;;;;;;4901200;29;19994;-86
2022/01/16 11:39:33;;;;;;;;;;;7.30;99.90;;;;;;4898400;29;20317;-86
2022/01/16 11:42:00;;;;;;;;;;;7.30;99.90;;;;;;4901519;29;19928;-87
2022/01/16 11:44:28;;;;;;;;;;;7.30;99.90;;;;;;4901830;29;19927;-86
2022/01/16 11:46:57;;;;;;;;;;;7.40;99.90;;;;;;4901390;29;19958;-86
2022/01/16 11:49:34;;;;;;;;;;;7.30;99.90;;;;;;4901702;29;19927;-87
2022/01/16 11:52:09;;;;;;;;;;;7.30;99.90;;;;;;4899074;29;19937;-87
2022/01/16 11:54:39;;;;;;;;;;;7.30;99.90;;;;;;4900309;29;19931;-87
2022/01/16 11:57:20;;;;;;;;;;;7.40;99.90;;;;;;4883886;29;20311;-86
2022/01/16 11:59:48;;;;;;;;;;;7.30;99.90;;;;;;4883607;29;19928;-87
2022/01/16 12:02:33;;;;;;;;;;;8.90;99.90;;;;;;4897406;29;20406;-87
2022/01/16 12:05:02;;;;;;;;;;;7.40;99.90;;;;;;4899557;29;20345;-86
2022/01/16 12:07:47;;;;;;;;;;;7.50;99.90;;;;;;4899934;29;20344;-87
2022/01/16 12:10:35;;;;;;;;;;;7.60;99.90;;;;;;4888505;29;20359;-87
2022/01/16 12:13:02;;;;;;;;;;;7.90;99.90;;;;;;4901444;29;19927;-86
2022/01/16 12:15:32;;;;;;;;;;;8.00;99.90;;;;;;4902072;29;19927;-86
2022/01/16 12:17:59;;;;;;;;;;;8.20;99.90;;;;;;4898010;29;19938;-86
2022/01/16 12:20:30;;;;;;;;;;;8.10;99.90;;;;;;4895637;29;19928;-86
2022/01/16 12:22:58;;;;;;;;;;;8.10;99.90;;;;;;4888414;29;20471;-87
2022/01/16 12:25:26;;;;;;;;;;;8.10;99.90;;;;;;4893332;29;19991;-87
2022/01/16 12:27:54;;;;;;;;;;;8.10;99.90;;;;;;4899948;29;19928;-85
2022/01/16 12:30:38;;;;;;;;;;;8.10;99.90;;;;;;4897390;29;19931;-86
2022/01/16 12:33:20;;;;;;;;;;;8.10;99.90;;;;;;4900566;29;20375;-86
2022/01/16 12:36:12;;;;;;;;;;;8.10;99.90;;;;;;4899244;29;20347;-86
2022/01/16 12:38:47;;;;;;;;;;;8.10;99.90;;;;;;4896641;29;19927;-87
2022/01/16 12:41:16;;;;;;;;;;;8.50;99.90;;;;;;4889479;29;19928;-87
2022/01/16 12:43:47;;;;;;;;;;;8.20;99.90;;;;;;4882770;29;19935;-87
2022/01/16 12:46:15;;;;;;;;;;;8.20;99.90;;;;;;4882001;29;19932;-87
2022/01/16 12:48:43;;;;;;;;;;;8.30;99.90;;;;;;4894807;29;19927;-87
2022/01/16 12:51:11;;;;;;;;;;;8.30;99.90;;;;;;4899013;29;19927;-87
2022/01/16 12:53:41;;;;;;;;;;;8.30;99.90;;;;;;4900504;29;19927;-87
2022/01/16 12:56:29;;;;;;;;;;;8.30;99.90;;;;;;4900371;29;19931;-86
2022/01/16 12:58:57;;;;;;;;;;;8.30;99.90;;;;;;4895785;29;19932;-87
2022/01/16 13:01:25;;;;;;;;;;;8.30;99.90;;;;;;4899432;29;19927;-87
2022/01/16 13:03:51;;;;;;;;;;;8.30;99.90;;;;;;4899809;29;19931;-86
2022/01/16 13:06:22;;;;;;;;;;;8.80;99.90;;;;;;4899977;29;19927;-87
2022/01/16 13:08:54;;;;;;;;;;;8.30;99.90;;;;;;4885141;29;19984;-86
2022/01/16 13:11:20;;;;;;;;;;;8.30;99.90;;;;;;4887395;29;19976;-85
2022/01/16 13:13:52;;;;;;;;;;;8.40;99.90;;;;;;4882145;29;19976;-86
2022/01/16 13:16:19;;;;;;;;;;;8.60;99.90;;;;;;4892509;29;19932;-86
2022/01/16 13:19:02;;;;;;;;;;;8.40;99.90;;;;;;4899655;29;19932;-85
2022/01/16 13:21:35;;;;;;;;;;;8.30;99.90;;;;;;4886693;29;19928;-85
2022/01/16 13:24:04;;;;;;;;;;;8.40;99.90;;;;;;4881276;29;19960;-86
2022/01/16 13:26:32;;;;;;;;;;;8.40;99.90;;;;;;4893118;29;19971;-86
2022/01/16 13:29:01;;;;;;;;;;;8.40;99.90;;;;;;4884422;29;20019;-86
2022/01/16 13:31:28;;;;;;;;;;;8.40;99.90;;;;;;4883855;29;20030;-85
2022/01/16 13:34:09;;;;;;;;;;;8.50;99.90;;;;;;4899059;29;19927;-86
2022/01/16 13:36:36;;;;;;;;;;;8.30;99.90;;;;;;4899609;29;19932;-85
2022/01/16 13:39:03;;;;;;;;;;;8.50;99.90;;;;;;4898407;29;19983;-85
2022/01/16 13:41:30;;;;;;;;;;;8.40;99.90;;;;;;4850486;29;19928;-86
2022/01/16 13:43:57;;;;;;;;;;;8.40;99.90;;;;;;4860258;29;19927;-85
2022/01/16 13:46:30;;;;;;;;;;;8.40;99.90;;;;;;4859307;29;20379;-85
2022/01/16 13:49:01;;;;;;;;;;;8.30;99.90;;;;;;4876075;29;19944;-86
2022/01/16 13:51:30;;;;;;;;;;;8.20;99.90;;;;;;4881892;29;20379;-87
2022/01/16 13:54:09;;;;;;;;;;;8.90;99.90;;;;;;4880620;29;19928;-86
2022/01/16 13:56:38;;;;;;;;;;;8.50;99.90;;;;;;4880488;29;20018;-86
2022/01/16 13:59:10;;;;;;;;;;;8.50;99.90;;;;;;4880371;29;19932;-86
2022/01/16 14:01:39;;;;;;;;;;;8.50;99.90;;;;;;4885496;29;19947;-85
2022/01/16 14:04:13;;;;;;;;;;;8.50;99.90;;;;;;4898378;29;20290;-86
2022/01/16 14:06:46;;;;;;;;;;;8.50;99.90;;;;;;4899072;29;19951;-85
2022/01/16 14:09:13;;;;;;;;;;;8.50;99.90;;;;;;4898399;29;19927;-85
2022/01/16 14:11:43;;;;;;;;;;;8.60;99.90;;;;;;4898673;29;19984;-86
2022/01/16 14:14:10;;;;;;;;;;;8.60;99.90;;;;;;4898555;29;20267;-85
2022/01/16 14:16:43;;;;;;;;;;;8.60;99.90;;;;;;4898623;29;19927;-85
2022/01/16 14:19:12;;;;;;;;;;;8.60;99.90;;;;;;4898901;29;19967;-85
2022/01/16 14:22:06;;;;;;;;;;;8.70;99.90;;;;;;4899267;29;19951;-85
2022/01/16 14:24:34;;;;;;;;;;;8.70;99.90;;;;;;4879749;29;19931;-86
2022/01/16 14:27:02;;;;;;;;;;;8.80;99.90;;;;;;4880311;29;20307;-86
2022/01/16 14:29:29;;;;;;;;;;;8.60;99.90;;;;;;4900441;29;19934;-86
2022/01/16 14:31:58;;;;;;;;;;;8.60;99.90;;;;;;4901156;29;19946;-85
2022/01/16 14:34:25;;;;;;;;;;;8.50;99.90;;;;;;4902901;29;19927;-85
2022/01/16 14:36:53;;;;;;;;;;;8.50;99.90;;;;;;4903197;29;20244;-86
2022/01/16 14:39:19;;;;;;;;;;;8.50;99.90;;;;;;4902267;29;19975;-84
2022/01/16 14:41:49;;;;;;;;;;;8.40;99.90;;;;;;4894956;29;19953;-85
2022/01/16 14:44:16;;;;;;;;;;;8.30;99.90;;;;;;4902559;29;19987;-84
2022/01/16 14:46:42;;;;;;;;;;;8.20;99.90;;;;;;4902171;29;19932;-86
2022/01/16 14:49:11;;;;;;;;;;;8.10;99.90;;;;;;4886178;29;19959;-87
2022/01/16 14:51:37;;;;;;;;;;;8.00;99.90;;;;;;4889012;29;19927;-87
2022/01/16 14:54:05;;;;;;;;;;;7.90;99.90;;;;;;4902214;29;19931;-86
2022/01/16 14:56:32;;;;;;;;;;;7.80;99.90;;;;;;4901811;29;19984;-85
2022/01/16 14:58:59;;;;;;;;;;;7.80;99.90;;;;;;4887810;29;19981;-87
2022/01/16 15:01:25;;;;;;;;;;;7.80;99.90;;;;;;4887506;29;19979;-86
2022/01/16 15:03:52;;;;;;;;;;;7.70;99.90;;;;;;4901971;29;19927;-86
2022/01/16 15:06:20;;;;;;;;;;;7.80;99.90;;;;;;4901988;29;19927;-86
2022/01/16 15:08:48;;;;;;;;;;;7.70;99.90;;;;;;4886847;29;19934;-86
2022/01/16 15:11:15;;;;;;;;;;;7.90;99.90;;;;;;4891198;29;19927;-87
2022/01/16 15:13:42;;;;;;;;;;;7.70;99.90;;;;;;4901514;29;20394;-86